sensor_id;sensor_type;location;lat;lon;timestamp;pressure;altitude;pressure_sealevel;temperature;humidity
6128;BME280;7073;42.672;23.256;2022-11-03T00:01:39;94908.19;;;17.18;43.50
6128;BME280;7073;42.672;23.256;2022-11-03T00:04:07;94905.41;;;17.25;44.42
6128;BME280;7073;42.672;23.256;2022-11-03T00:06:35;94910.09;;;17.23;43.91
6128;BME280;7073;42.672;23.256;2022-11-03T00:09:05;94913.03;;;17.43;44.17
6128;BME280;7073;42.672;23.256;2022-11-03T00:11:32;94920.94;;;17.26;44.79
6128;BME280;7073;42.672;23.256;2022-11-03T00:14:00;94921.56;;;17.33;44.51
6128;BME280;7073;42.672;23.256;2022-11-03T00:16:27;94926.13;;;17.38;44.18
6128;BME280;7073;42.672;23.256;2022-11-03T00:18:54;94928.69;;;17.33;44.06
6128;BME280;7073;42.672;23.256;2022-11-03T00:21:21;94926.22;;;17.26;44.44
6128;BME280;7073;42.672;23.256;2022-11-03T00:23:48;94934.72;;;16.95;45.84
6128;BME280;7073;42.672;23.256;2022-11-03T00:26:17;94923.16;;;16.34;48.31
6128;BME280;7073;42.672;23.256;2022-11-03T00:28:47;94928.78;;;16.55;47.65
6128;BME280;7073;42.672;23.256;2022-11-03T00:31:16;94918.66;;;16.63;47.67
6128;BME280;7073;42.672;23.256;2022-11-03T00:33:43;94917.06;;;16.62;47.88
6128;BME280;7073;42.672;23.256;2022-11-03T00:36:14;94914.22;;;16.64;47.74
6128;BME280;7073;42.672;23.256;2022-11-03T00:38:41;94922.38;;;16.50;48.54
6128;BME280;7073;42.672;23.256;2022-11-03T00:41:08;94916.66;;;16.25;49.08
6128;BME280;7073;42.672;23.256;2022-11-03T00:43:37;94927.09;;;16.20;49.69
6128;BME280;7073;42.672;23.256;2022-11-03T00:46:05;94927.69;;;16.22;49.75
6128;BME280;7073;42.672;23.256;2022-11-03T00:48:33;94930.41;;;16.27;49.16
6128;BME280;7073;42.672;23.256;2022-11-03T00:51:02;94938.94;;;16.34;49.20
6128;BME280;7073;42.672;23.256;2022-11-03T00:53:29;94925.34;;;16.26;49.08
6128;BME280;7073;42.672;23.256;2022-11-03T00:55:56;94929.16;;;16.18;49.72
6128;BME280;7073;42.672;23.256;2022-11-03T00:58:23;94930.19;;;16.17;49.67
6128;BME280;7073;42.672;23.256;2022-11-03T01:00:57;94926.34;;;16.08;50.31
6128;BME280;7073;42.672;23.256;2022-11-03T01:03:25;94930.19;;;16.17;49.49
6128;BME280;7073;42.672;23.256;2022-11-03T01:05:51;94926.81;;;16.05;48.99
6128;BME280;7073;42.672;23.256;2022-11-03T01:08:35;94925.22;;;16.04;49.54
6128;BME280;7073;42.672;23.256;2022-11-03T01:11:07;94921.75;;;16.15;48.53
6128;BME280;7073;42.672;23.256;2022-11-03T01:13:52;94916.56;;;16.04;49.21
6128;BME280;7073;42.672;23.256;2022-11-03T01:16:20;94925.88;;;16.11;49.00
6128;BME280;7073;42.672;23.256;2022-11-03T01:18:47;94931.09;;;16.23;49.09
6128;BME280;7073;42.672;23.256;2022-11-03T01:21:14;94930.56;;;16.37;48.88
6128;BME280;7073;42.672;23.256;2022-11-03T01:23:41;94936.34;;;16.51;48.96
6128;BME280;7073;42.672;23.256;2022-11-03T01:26:10;94919.50;;;16.52;48.75
6128;BME280;7073;42.672;23.256;2022-11-03T01:28:38;94930.94;;;16.29;49.71
6128;BME280;7073;42.672;23.256;2022-11-03T01:31:06;94931.47;;;16.15;49.86
6128;BME280;7073;42.672;23.256;2022-11-03T01:33:35;94908.16;;;16.07;50.24
6128;BME280;7073;42.672;23.256;2022-11-03T01:36:02;94937.31;;;16.17;49.72
6128;BME280;7073;42.672;23.256;2022-11-03T01:38:30;94926.78;;;16.17;50.25
6128;BME280;7073;42.672;23.256;2022-11-03T01:40:58;94924.38;;;16.15;50.40
6128;BME280;7073;42.672;23.256;2022-11-03T01:43:25;94928.59;;;16.16;50.90
6128;BME280;7073;42.672;23.256;2022-11-03T01:46:01;94925.72;;;16.18;50.46
6128;BME280;7073;42.672;23.256;2022-11-03T01:48:30;94925.69;;;16.01;51.60
6128;BME280;7073;42.672;23.256;2022-11-03T01:51:00;94925.63;;;15.96;52.35
6128;BME280;7073;42.672;23.256;2022-11-03T01:53:29;94933.69;;;16.06;52.00
6128;BME280;7073;42.672;23.256;2022-11-03T01:55:56;94920.22;;;15.91;52.41
6128;BME280;7073;42.672;23.256;2022-11-03T01:58:27;94921.59;;;15.93;52.43
6128;BME280;7073;42.672;23.256;2022-11-03T02:00:56;94925.84;;;15.83;53.46
6128;BME280;7073;42.672;23.256;2022-11-03T02:03:24;94932.16;;;15.82;53.95
6128;BME280;7073;42.672;23.256;2022-11-03T02:05:52;94936.69;;;15.86;54.62
6128;BME280;7073;42.672;23.256;2022-11-03T02:08:24;94944.41;;;15.65;54.75
6128;BME280;7073;42.672;23.256;2022-11-03T02:10:51;94934.94;;;15.52;55.49
6128;BME280;7073;42.672;23.256;2022-11-03T02:13:20;94943.97;;;15.56;55.89
6128;BME280;7073;42.672;23.256;2022-11-03T02:15:47;94932.56;;;15.51;56.05
6128;BME280;7073;42.672;23.256;2022-11-03T02:18:17;94936.63;;;15.70;55.32
6128;BME280;7073;42.672;23.256;2022-11-03T02:20:48;94936.75;;;15.75;55.54
6128;BME280;7073;42.672;23.256;2022-11-03T02:23:27;94938.53;;;15.86;54.67
6128;BME280;7073;42.672;23.256;2022-11-03T02:25:59;94934.06;;;15.86;54.78
6128;BME280;7073;42.672;23.256;2022-11-03T02:28:28;94935.94;;;15.74;55.28
6128;BME280;7073;42.672;23.256;2022-11-03T02:31:03;94913.41;;;15.90;54.53
6128;BME280;7073;42.672;23.256;2022-11-03T02:33:45;94934.59;;;16.00;53.57
6128;BME280;7073;42.672;23.256;2022-11-03T02:36:18;94934.41;;;15.90;54.55
6128;BME280;7073;42.672;23.256;2022-11-03T02:38:49;94933.41;;;15.79;55.30
6128;BME280;7073;42.672;23.256;2022-11-03T02:41:21;94928.72;;;15.81;55.31
6128;BME280;7073;42.672;23.256;2022-11-03T02:43:49;94902.19;;;15.83;54.92
6128;BME280;7073;42.672;23.256;2022-11-03T02:46:18;94919.88;;;15.99;54.94
6128;BME280;7073;42.672;23.256;2022-11-03T02:48:46;94922.81;;;15.74;55.78
6128;BME280;7073;42.672;23.256;2022-11-03T02:51:13;94934.41;;;15.90;55.28
6128;BME280;7073;42.672;23.256;2022-11-03T02:53:43;94934.06;;;15.86;55.61
6128;BME280;7073;42.672;23.256;2022-11-03T02:56:15;94931.28;;;15.42;57.00
6128;BME280;7073;42.672;23.256;2022-11-03T02:58:50;94927.53;;;15.26;57.76
6128;BME280;7073;42.672;23.256;2022-11-03T03:01:24;94934.25;;;15.45;58.04
6128;BME280;7073;42.672;23.256;2022-11-03T03:03:57;94927.06;;;15.41;58.02
6128;BME280;7073;42.672;23.256;2022-11-03T03:06:27;94932.91;;;15.43;58.13
6128;BME280;7073;42.672;23.256;2022-11-03T03:08:59;94929.44;;;15.65;57.70
6128;BME280;7073;42.672;23.256;2022-11-03T03:11:28;94925.44;;;15.74;56.91
6128;BME280;7073;42.672;23.256;2022-11-03T03:14:09;94933.00;;;15.99;56.29
6128;BME280;7073;42.672;23.256;2022-11-03T03:16:45;94926.16;;;15.98;56.58
6128;BME280;7073;42.672;23.256;2022-11-03T03:19:20;94935.97;;;16.03;56.18
6128;BME280;7073;42.672;23.256;2022-11-03T03:21:51;94926.81;;;16.05;56.29
6128;BME280;7073;42.672;23.256;2022-11-03T03:24:25;94923.84;;;16.02;56.08
6128;BME280;7073;42.672;23.256;2022-11-03T03:26:55;94930.00;;;16.07;56.63
6128;BME280;7073;42.672;23.256;2022-11-03T03:29:28;94928.28;;;15.73;57.05
6128;BME280;7073;42.672;23.256;2022-11-03T03:31:59;94926.19;;;15.86;56.93
6128;BME280;7073;42.672;23.256;2022-11-03T03:34:27;94908.94;;;15.90;56.54
6128;BME280;7073;42.672;23.256;2022-11-03T03:36:57;94920.44;;;16.01;56.46
6128;BME280;7073;42.672;23.256;2022-11-03T03:39:28;94919.84;;;15.59;57.28
6128;BME280;7073;42.672;23.256;2022-11-03T03:41:57;94911.91;;;15.19;59.09
6128;BME280;7073;42.672;23.256;2022-11-03T03:44:29;94927.63;;;15.66;57.61
6128;BME280;7073;42.672;23.256;2022-11-03T03:46:59;94927.34;;;15.79;57.43
6128;BME280;7073;42.672;23.256;2022-11-03T03:49:26;94925.34;;;15.58;58.05
6128;BME280;7073;42.672;23.256;2022-11-03T03:51:53;94926.25;;;15.75;58.08
6128;BME280;7073;42.672;23.256;2022-11-03T03:54:20;94926.00;;;15.76;57.91
6128;BME280;7073;42.672;23.256;2022-11-03T03:56:50;94926.91;;;15.82;57.95
6128;BME280;7073;42.672;23.256;2022-11-03T03:59:19;94929.88;;;15.74;57.95
6128;BME280;7073;42.672;23.256;2022-11-03T04:01:47;94926.16;;;15.58;58.79
6128;BME280;7073;42.672;23.256;2022-11-03T04:04:14;94931.63;;;15.33;60.00
6128;BME280;7073;42.672;23.256;2022-11-03T04:06:40;94936.09;;;15.21;60.53
6128;BME280;7073;42.672;23.256;2022-11-03T04:09:08;94936.19;;;15.15;61.14
6128;BME280;7073;42.672;23.256;2022-11-03T04:11:34;94936.00;;;15.16;60.71
6128;BME280;7073;42.672;23.256;2022-11-03T04:14:19;94933.91;;;15.07;61.74
6128;BME280;7073;42.672;23.256;2022-11-03T04:17:06;94924.56;;;14.99;61.20
6128;BME280;7073;42.672;23.256;2022-11-03T04:19:52;94933.31;;;14.70;62.98
6128;BME280;7073;42.672;23.256;2022-11-03T04:22:36;94934.97;;;14.12;64.99
6128;BME280;7073;42.672;23.256;2022-11-03T04:25:04;94934.28;;;14.34;64.25
6128;BME280;7073;42.672;23.256;2022-11-03T04:27:32;94930.78;;;14.40;64.72
6128;BME280;7073;42.672;23.256;2022-11-03T04:30:08;94923.81;;;13.86;66.78
6128;BME280;7073;42.672;23.256;2022-11-03T04:32:41;94927.19;;;13.57;69.37
6128;BME280;7073;42.672;23.256;2022-11-03T04:35:14;94924.50;;;13.64;69.26
6128;BME280;7073;42.672;23.256;2022-11-03T04:37:42;94922.97;;;13.74;68.52
6128;BME280;7073;42.672;23.256;2022-11-03T04:40:13;94918.16;;;13.71;69.05
6128;BME280;7073;42.672;23.256;2022-11-03T04:42:41;94922.78;;;13.87;67.96
6128;BME280;7073;42.672;23.256;2022-11-03T04:45:15;94917.66;;;13.44;69.66
6128;BME280;7073;42.672;23.256;2022-11-03T04:47:44;94920.13;;;13.39;70.66
6128;BME280;7073;42.672;23.256;2022-11-03T04:50:15;94923.00;;;13.38;70.87
6128;BME280;7073;42.672;23.256;2022-11-03T04:52:43;94924.22;;;13.54;70.79
6128;BME280;7073;42.672;23.256;2022-11-03T04:55:13;94919.28;;;13.27;70.95
6128;BME280;7073;42.672;23.256;2022-11-03T04:57:40;94926.53;;;13.25;71.46
6128;BME280;7073;42.672;23.256;2022-11-03T05:00:13;94923.31;;;13.23;72.04
6128;BME280;7073;42.672;23.256;2022-11-03T05:02:41;94919.63;;;13.13;72.37
6128;BME280;7073;42.672;23.256;2022-11-03T05:05:16;94912.44;;;13.02;72.17
6128;BME280;7073;42.672;23.256;2022-11-03T05:07:45;94930.72;;;13.08;73.04
6128;BME280;7073;42.672;23.256;2022-11-03T05:10:15;94929.72;;;12.84;74.00
6128;BME280;7073;42.672;23.256;2022-11-03T05:12:44;94928.38;;;12.75;75.54
6128;BME280;7073;42.672;23.256;2022-11-03T05:15:26;94936.84;;;12.96;74.97
6128;BME280;7073;42.672;23.256;2022-11-03T05:17:55;94925.50;;;13.08;74.18
6128;BME280;7073;42.672;23.256;2022-11-03T05:20:31;94936.84;;;13.20;72.98
6128;BME280;7073;42.672;23.256;2022-11-03T05:23:00;94939.38;;;13.09;73.10
6128;BME280;7073;42.672;23.256;2022-11-03T05:25:37;94937.81;;;12.76;75.44
6128;BME280;7073;42.672;23.256;2022-11-03T05:28:14;94937.34;;;12.61;76.70
6128;BME280;7073;42.672;23.256;2022-11-03T05:30:45;94941.69;;;12.67;75.86
6128;BME280;7073;42.672;23.256;2022-11-03T05:33:18;94941.69;;;12.67;76.89
6128;BME280;7073;42.672;23.256;2022-11-03T05:35:48;94947.31;;;12.71;77.21
6128;BME280;7073;42.672;23.256;2022-11-03T05:38:18;94951.75;;;12.70;76.66
6128;BME280;7073;42.672;23.256;2022-11-03T05:40:48;94950.78;;;12.65;77.42
6128;BME280;7073;42.672;23.256;2022-11-03T05:43:17;94956.22;;;12.63;77.90
6128;BME280;7073;42.672;23.256;2022-11-03T05:45:45;94960.69;;;12.81;77.43
6128;BME280;7073;42.672;23.256;2022-11-03T05:48:17;94969.69;;;13.16;76.34
6128;BME280;7073;42.672;23.256;2022-11-03T05:50:45;94972.25;;;13.41;75.28
6128;BME280;7073;42.672;23.256;2022-11-03T05:53:26;94960.50;;;13.07;75.74
6128;BME280;7073;42.672;23.256;2022-11-03T05:55:53;94976.84;;;13.45;73.31
6128;BME280;7073;42.672;23.256;2022-11-03T05:58:23;94976.91;;;13.75;72.83
6128;BME280;7073;42.672;23.256;2022-11-03T06:00:51;94986.53;;;13.81;72.03
6128;BME280;7073;42.672;23.256;2022-11-03T06:03:22;94986.88;;;14.03;70.45
6128;BME280;7073;42.672;23.256;2022-11-03T06:05:50;94990.56;;;14.14;69.79
6128;BME280;7073;42.672;23.256;2022-11-03T06:08:21;94974.41;;;14.17;68.99
6128;BME280;7073;42.672;23.256;2022-11-03T06:10:50;95000.63;;;14.35;68.18
6128;BME280;7073;42.672;23.256;2022-11-03T06:13:21;94981.47;;;14.34;67.21
6128;BME280;7073;42.672;23.256;2022-11-03T06:15:57;94997.56;;;14.49;66.83
6128;BME280;7073;42.672;23.256;2022-11-03T06:18:29;95007.88;;;14.62;65.87
6128;BME280;7073;42.672;23.256;2022-11-03T06:21:00;95009.97;;;14.72;65.35
6128;BME280;7073;42.672;23.256;2022-11-03T06:23:31;94999.84;;;14.99;66.54
6128;BME280;7073;42.672;23.256;2022-11-03T06:26:00;95007.81;;;14.81;65.87
6128;BME280;7073;42.672;23.256;2022-11-03T06:28:29;95015.88;;;15.09;65.16
6128;BME280;7073;42.672;23.256;2022-11-03T06:30:57;95007.56;;;15.35;65.55
6128;BME280;7073;42.672;23.256;2022-11-03T06:33:26;95008.94;;;15.61;63.63
6128;BME280;7073;42.672;23.256;2022-11-03T06:36:00;95019.44;;;15.49;63.45
6128;BME280;7073;42.672;23.256;2022-11-03T06:38:30;95019.31;;;15.67;63.79
6128;BME280;7073;42.672;23.256;2022-11-03T06:40:59;95020.44;;;15.83;63.36
6128;BME280;7073;42.672;23.256;2022-11-03T06:43:33;95017.78;;;16.06;62.37
6128;BME280;7073;42.672;23.256;2022-11-03T06:46:13;95008.31;;;16.05;61.52
6128;BME280;7073;42.672;23.256;2022-11-03T06:48:43;95020.53;;;16.11;62.11
6128;BME280;7073;42.672;23.256;2022-11-03T06:51:14;95013.75;;;16.27;61.40
6128;BME280;7073;42.672;23.256;2022-11-03T06:53:43;95017.78;;;16.46;61.71
6128;BME280;7073;42.672;23.256;2022-11-03T06:56:11;95016.38;;;16.15;61.87
6128;BME280;7073;42.672;23.256;2022-11-03T06:58:41;95027.41;;;16.40;61.83
6128;BME280;7073;42.672;23.256;2022-11-03T07:01:12;95026.13;;;16.03;62.45
6128;BME280;7073;42.672;23.256;2022-11-03T07:03:40;95019.78;;;16.67;61.63
6128;BME280;7073;42.672;23.256;2022-11-03T07:06:14;95015.69;;;17.04;60.57
6128;BME280;7073;42.672;23.256;2022-11-03T07:08:46;95015.06;;;17.14;60.35
6128;BME280;7073;42.672;23.256;2022-11-03T07:11:16;95005.78;;;16.95;60.99
6128;BME280;7073;42.672;23.256;2022-11-03T07:13:44;95011.94;;;17.00;61.54
6128;BME280;7073;42.672;23.256;2022-11-03T07:16:12;95011.34;;;16.82;62.62
6128;BME280;7073;42.672;23.256;2022-11-03T07:18:42;95005.78;;;17.28;60.64
6128;BME280;7073;42.672;23.256;2022-11-03T07:21:24;95010.75;;;17.08;60.20
6128;BME280;7073;42.672;23.256;2022-11-03T07:23:53;94998.78;;;17.17;60.06
6128;BME280;7073;42.672;23.256;2022-11-03T07:26:19;95006.34;;;17.13;60.68
6128;BME280;7073;42.672;23.256;2022-11-03T07:28:46;95000.06;;;17.15;60.43
6128;BME280;7073;42.672;23.256;2022-11-03T07:31:18;95005.31;;;17.48;60.05
6128;BME280;7073;42.672;23.256;2022-11-03T07:33:45;95007.63;;;17.61;58.71
6128;BME280;7073;42.672;23.256;2022-11-03T07:36:17;95014.66;;;17.94;58.27
6128;BME280;7073;42.672;23.256;2022-11-03T07:38:47;95021.72;;;17.88;57.76
6128;BME280;7073;42.672;23.256;2022-11-03T07:41:19;94998.22;;;17.87;57.98
6128;BME280;7073;42.672;23.256;2022-11-03T07:43:51;95002.16;;;18.27;57.76
6128;BME280;7073;42.672;23.256;2022-11-03T07:46:20;95008.91;;;17.97;58.62
6128;BME280;7073;42.672;23.256;2022-11-03T07:48:48;95010.50;;;17.98;58.97
6128;BME280;7073;42.672;23.256;2022-11-03T07:51:19;95011.44;;;18.08;58.19
6128;BME280;7073;42.672;23.256;2022-11-03T07:53:49;94946.63;;;17.91;57.40
6128;BME280;7073;42.672;23.256;2022-11-03T07:56:21;94997.91;;;18.70;55.41
6128;BME280;7073;42.672;23.256;2022-11-03T07:58:51;95013.88;;;18.58;55.97
6128;BME280;7073;42.672;23.256;2022-11-03T08:01:24;94999.78;;;18.74;55.62
6128;BME280;7073;42.672;23.256;2022-11-03T08:03:55;95003.06;;;18.60;56.79
6128;BME280;7073;42.672;23.256;2022-11-03T08:06:22;95001.28;;;18.92;55.74
6128;BME280;7073;42.672;23.256;2022-11-03T08:08:49;94991.50;;;18.92;54.83
6128;BME280;7073;42.672;23.256;2022-11-03T08:11:16;94993.22;;;18.77;56.07
6128;BME280;7073;42.672;23.256;2022-11-03T08:13:44;94985.56;;;18.49;56.74
6128;BME280;7073;42.672;23.256;2022-11-03T08:16:11;94987.53;;;18.63;56.38
6128;BME280;7073;42.672;23.256;2022-11-03T08:18:38;94982.25;;;18.90;55.38
6128;BME280;7073;42.672;23.256;2022-11-03T08:21:05;94974.56;;;18.88;55.55
6128;BME280;7073;42.672;23.256;2022-11-03T08:23:32;94973.03;;;18.92;55.25
6128;BME280;7073;42.672;23.256;2022-11-03T08:25:59;94976.75;;;18.97;54.54
6128;BME280;7073;42.672;23.256;2022-11-03T08:28:25;94971.00;;;19.05;55.18
6128;BME280;7073;42.672;23.256;2022-11-03T08:30:54;94978.00;;;19.21;53.77
6128;BME280;7073;42.672;23.256;2022-11-03T08:33:26;94981.69;;;19.15;54.44
6128;BME280;7073;42.672;23.256;2022-11-03T08:35:53;94976.47;;;19.62;53.38
6128;BME280;7073;42.672;23.256;2022-11-03T08:38:20;94978.75;;;19.48;53.43
6128;BME280;7073;42.672;23.256;2022-11-03T08:41:04;94974.31;;;19.53;52.44
6128;BME280;7073;42.672;23.256;2022-11-03T08:43:31;94971.78;;;19.79;51.70
6128;BME280;7073;42.672;23.256;2022-11-03T08:46:00;94972.97;;;19.51;51.97
6128;BME280;7073;42.672;23.256;2022-11-03T08:48:27;94988.00;;;19.45;52.51
6128;BME280;7073;42.672;23.256;2022-11-03T08:50:54;94958.13;;;19.45;51.90
6128;BME280;7073;42.672;23.256;2022-11-03T08:53:22;94969.75;;;19.91;50.89
6128;BME280;7073;42.672;23.256;2022-11-03T08:55:49;94980.91;;;20.03;50.79
6128;BME280;7073;42.672;23.256;2022-11-03T08:58:16;94974.13;;;20.22;49.85
6128;BME280;7073;42.672;23.256;2022-11-03T09:00:44;94965.94;;;20.24;49.40
6128;BME280;7073;42.672;23.256;2022-11-03T09:03:12;94980.66;;;20.04;49.66
6128;BME280;7073;42.672;23.256;2022-11-03T09:05:39;94972.41;;;19.91;50.22
6128;BME280;7073;42.672;23.256;2022-11-03T09:08:06;94971.13;;;20.03;50.56
6128;BME280;7073;42.672;23.256;2022-11-03T09:10:33;94957.88;;;19.98;50.26
6128;BME280;7073;42.672;23.256;2022-11-03T09:13:00;94965.94;;;20.24;50.90
6128;BME280;7073;42.672;23.256;2022-11-03T09:15:27;94967.16;;;20.83;49.91
6128;BME280;7073;42.672;23.256;2022-11-03T09:17:55;94963.94;;;20.76;49.47
6128;BME280;7073;42.672;23.256;2022-11-03T09:20:23;94953.09;;;21.48;47.64
6128;BME280;7073;42.672;23.256;2022-11-03T09:22:50;94962.41;;;21.41;46.38
6128;BME280;7073;42.672;23.256;2022-11-03T09:25:17;94951.03;;;21.20;48.16
6128;BME280;7073;42.672;23.256;2022-11-03T09:27:44;94953.31;;;21.77;46.26
6128;BME280;7073;42.672;23.256;2022-11-03T09:30:11;94944.41;;;21.17;47.08
6128;BME280;7073;42.672;23.256;2022-11-03T09:32:39;94949.84;;;21.97;45.61
6128;BME280;7073;42.672;23.256;2022-11-03T09:35:07;94950.25;;;22.19;45.36
6128;BME280;7073;42.672;23.256;2022-11-03T09:37:35;94945.66;;;22.39;45.65
6128;BME280;7073;42.672;23.256;2022-11-03T09:40:03;94947.47;;;22.49;44.88
6128;BME280;7073;42.672;23.256;2022-11-03T09:42:31;94939.47;;;22.98;43.29
6128;BME280;7073;42.672;23.256;2022-11-03T09:45:00;94933.84;;;22.99;43.43
6128;BME280;7073;42.672;23.256;2022-11-03T09:47:32;94931.13;;;23.43;42.62
6128;BME280;7073;42.672;23.256;2022-11-03T09:49:59;94933.81;;;24.38;40.53
6128;BME280;7073;42.672;23.256;2022-11-03T09:52:26;94928.91;;;24.45;40.72
6128;BME280;7073;42.672;23.256;2022-11-03T09:54:55;94914.16;;;24.10;40.76
6128;BME280;7073;42.672;23.256;2022-11-03T09:57:24;94928.09;;;23.79;41.25
6128;BME280;7073;42.672;23.256;2022-11-03T09:59:51;94923.59;;;22.88;43.14
6128;BME280;7073;42.672;23.256;2022-11-03T10:02:21;94914.50;;;23.28;42.65
6128;BME280;7073;42.672;23.256;2022-11-03T10:04:51;94911.09;;;22.88;42.64
6128;BME280;7073;42.672;23.256;2022-11-03T10:07:19;94907.91;;;22.91;43.16
6128;BME280;7073;42.672;23.256;2022-11-03T10:09:48;94913.47;;;22.90;42.17
6128;BME280;7073;42.672;23.256;2022-11-03T10:12:18;94905.59;;;23.42;42.11
6128;BME280;7073;42.672;23.256;2022-11-03T10:14:45;94897.63;;;23.90;41.39
6128;BME280;7073;42.672;23.256;2022-11-03T10:17:16;94900.09;;;24.47;40.40
6128;BME280;7073;42.672;23.256;2022-11-03T10:19:47;94895.78;;;24.32;40.00
6128;BME280;7073;42.672;23.256;2022-11-03T10:22:15;94888.28;;;23.92;40.53
6128;BME280;7073;42.672;23.256;2022-11-03T10:24:42;94887.28;;;23.64;41.27
6128;BME280;7073;42.672;23.256;2022-11-03T10:27:20;94886.22;;;24.08;40.67
6128;BME280;7073;42.672;23.256;2022-11-03T10:30:03;94865.75;;;23.85;39.45
6128;BME280;7073;42.672;23.256;2022-11-03T10:32:31;94874.63;;;24.78;38.45
6128;BME280;7073;42.672;23.256;2022-11-03T10:34:59;94855.97;;;24.92;38.24
6128;BME280;7073;42.672;23.256;2022-11-03T10:37:26;94864.59;;;24.14;39.43
6128;BME280;7073;42.672;23.256;2022-11-03T10:39:54;94865.03;;;24.21;38.36
6128;BME280;7073;42.672;23.256;2022-11-03T10:42:25;94849.44;;;23.91;39.11
6128;BME280;7073;42.672;23.256;2022-11-03T10:45:09;94852.84;;;24.15;39.00
6128;BME280;7073;42.672;23.256;2022-11-03T10:47:37;94850.81;;;24.63;37.88
6128;BME280;7073;42.672;23.256;2022-11-03T10:50:19;94853.22;;;24.65;37.18
6128;BME280;7073;42.672;23.256;2022-11-03T10:52:47;94843.91;;;24.81;36.56
6128;BME280;7073;42.672;23.256;2022-11-03T10:55:15;94835.94;;;24.62;36.40
6128;BME280;7073;42.672;23.256;2022-11-03T10:57:43;94837.69;;;25.31;35.71
6128;BME280;7073;42.672;23.256;2022-11-03T11:00:13;94845.75;;;25.59;34.71
6128;BME280;7073;42.672;23.256;2022-11-03T11:02:41;94836.25;;;25.93;34.24
6128;BME280;7073;42.672;23.256;2022-11-03T11:05:13;94830.03;;;25.57;33.08
6128;BME280;7073;42.672;23.256;2022-11-03T11:07:42;94824.97;;;25.56;32.23
6128;BME280;7073;42.672;23.256;2022-11-03T11:10:12;94820.88;;;25.44;32.22
6128;BME280;7073;42.672;23.256;2022-11-03T11:13:05;94816.25;;;25.91;32.52
6128;BME280;7073;42.672;23.256;2022-11-03T11:15:40;94822.63;;;25.81;32.31
6128;BME280;7073;42.672;23.256;2022-11-03T11:18:07;94814.44;;;26.13;32.47
6128;BME280;7073;42.672;23.256;2022-11-03T11:20:40;94801.28;;;25.54;32.95
6128;BME280;7073;42.672;23.256;2022-11-03T11:26:30;94811.41;;;25.38;33.38
6128;BME280;7073;42.672;23.256;2022-11-03T11:32:55;94795.31;;;24.84;31.04
6128;BME280;7073;42.672;23.256;2022-11-03T11:38:59;94792.19;;;26.04;30.49
6128;BME280;7073;42.672;23.256;2022-11-03T11:42:04;94789.19;;;25.84;31.48
6128;BME280;7073;42.672;23.256;2022-11-03T11:44:50;94785.19;;;25.95;31.86
6128;BME280;7073;42.672;23.256;2022-11-03T11:47:24;94770.97;;;27.10;30.35
6128;BME280;7073;42.672;23.256;2022-11-03T11:50:21;94771.38;;;26.51;29.86
6128;BME280;7073;42.672;23.256;2022-11-03T11:52:52;94770.78;;;25.82;31.42
6128;BME280;7073;42.672;23.256;2022-11-03T11:55:28;94760.69;;;26.29;31.09
6128;BME280;7073;42.672;23.256;2022-11-03T11:57:58;94759.72;;;25.75;31.69
6128;BME280;7073;42.672;23.256;2022-11-03T12:00:28;94761.34;;;25.49;33.04
6128;BME280;7073;42.672;23.256;2022-11-03T12:02:56;94755.00;;;25.59;32.26
6128;BME280;7073;42.672;23.256;2022-11-03T12:05:28;94754.56;;;24.97;32.99
6128;BME280;7073;42.672;23.256;2022-11-03T12:07:56;94750.25;;;25.56;33.30
6128;BME280;7073;42.672;23.256;2022-11-03T12:10:25;94753.56;;;25.88;32.39
6128;BME280;7073;42.672;23.256;2022-11-03T12:12:52;94746.09;;;26.79;31.12
6128;BME280;7073;42.672;23.256;2022-11-03T12:15:48;94746.66;;;26.23;31.36
6128;BME280;7073;42.672;23.256;2022-11-03T12:18:33;94739.94;;;26.34;31.04
6128;BME280;7073;42.672;23.256;2022-11-03T12:21:03;94740.34;;;26.05;31.47
6128;BME280;7073;42.672;23.256;2022-11-03T12:23:34;94736.03;;;25.96;32.02
6128;BME280;7073;42.672;23.256;2022-11-03T12:26:02;94736.44;;;26.25;31.42
6128;BME280;7073;42.672;23.256;2022-11-03T12:28:31;94721.63;;;26.05;31.70
6128;BME280;7073;42.672;23.256;2022-11-03T12:30:58;94729.16;;;25.81;32.53
6128;BME280;7073;42.672;23.256;2022-11-03T12:33:26;94728.22;;;26.66;31.55
6128;BME280;7073;42.672;23.256;2022-11-03T12:35:53;94718.38;;;27.54;29.55
6128;BME280;7073;42.672;23.256;2022-11-03T12:38:21;94720.03;;;28.23;28.77
6128;BME280;7073;42.672;23.256;2022-11-03T12:40:48;94720.19;;;27.27;29.60
6128;BME280;7073;42.672;23.256;2022-11-03T12:43:15;94713.00;;;27.45;29.04
6128;BME280;7073;42.672;23.256;2022-11-03T12:45:42;94711.22;;;26.40;29.88
6128;BME280;7073;42.672;23.256;2022-11-03T12:48:09;94715.22;;;26.51;30.07
6128;BME280;7073;42.672;23.256;2022-11-03T12:50:36;94715.22;;;26.51;30.15
6128;BME280;7073;42.672;23.256;2022-11-03T12:53:04;94700.69;;;25.63;30.95
6128;BME280;7073;42.672;23.256;2022-11-03T12:55:33;94697.47;;;26.10;30.80
6128;BME280;7073;42.672;23.256;2022-11-03T12:58:00;94691.34;;;25.52;31.40
6128;BME280;7073;42.672;23.256;2022-11-03T13:00:28;94697.44;;;25.66;31.02
6128;BME280;7073;42.672;23.256;2022-11-03T13:02:55;94701.53;;;26.08;30.93
6128;BME280;7073;42.672;23.256;2022-11-03T13:05:22;94698.59;;;26.54;30.22
6128;BME280;7073;42.672;23.256;2022-11-03T13:07:50;94690.75;;;26.13;30.68
6128;BME280;7073;42.672;23.256;2022-11-03T13:10:17;94688.59;;;25.79;31.04
6128;BME280;7073;42.672;23.256;2022-11-03T13:12:45;94692.09;;;26.46;30.36
6128;BME280;7073;42.672;23.256;2022-11-03T13:15:11;94672.94;;;25.64;30.94
6128;BME280;7073;42.672;23.256;2022-11-03T13:17:40;94675.47;;;25.20;32.01
6128;BME280;7073;42.672;23.256;2022-11-03T13:20:08;94686.16;;;26.80;30.67
6128;BME280;7073;42.672;23.256;2022-11-03T13:22:36;94676.63;;;26.96;30.77
6128;BME280;7073;42.672;23.256;2022-11-03T13:25:04;94678.31;;;26.84;30.40
6128;BME280;7073;42.672;23.256;2022-11-03T13:27:31;94677.22;;;26.32;31.31
6128;BME280;7073;42.672;23.256;2022-11-03T13:29:59;94664.44;;;25.84;31.46
6128;BME280;7073;42.672;23.256;2022-11-03T13:32:26;94667.38;;;27.02;31.12
6128;BME280;7073;42.672;23.256;2022-11-03T13:34:53;94670.44;;;26.56;30.29
6128;BME280;7073;42.672;23.256;2022-11-03T13:37:20;94671.19;;;27.18;30.12